sensor_id;sensor_type;location;lat;lon;timestamp;pressure;altitude;pressure_sealevel;temperature;humidity
9129;BME280;4599;50.906;6.786;2023-07-20T00:00:23;18900.22;;;-142.83;60.49
9129;BME280;4599;50.906;6.786;2023-07-20T00:04:27;18939.09;;;-142.83;60.24
9129;BME280;4599;50.906;6.786;2023-07-20T00:08:29;18920.66;;;-142.83;61.03
9129;BME280;4599;50.906;6.786;2023-07-20T00:12:32;18955.47;;;-142.83;60.53
9129;BME280;4599;50.906;6.786;2023-07-20T00:16:34;18943.19;;;-142.83;61.35
9129;BME280;4599;50.906;6.786;2023-07-20T00:20:37;18939.09;;;-142.83;61.19
9129;BME280;4599;50.906;6.786;2023-07-20T00:24:38;18928.84;;;-142.83;61.53
9129;BME280;4599;50.906;6.786;2023-07-20T00:28:40;18896.13;;;-142.83;62.23
9129;BME280;4599;50.906;6.786;2023-07-20T00:32:42;18930.91;;;-142.83;62.25
9129;BME280;4599;50.906;6.786;2023-07-20T00:36:45;18926.81;;;-142.83;62.74
9129;BME280;4599;50.906;6.786;2023-07-20T00:40:47;18920.66;;;-142.83;63.51
9129;BME280;4599;50.906;6.786;2023-07-20T00:44:48;18914.53;;;-142.83;63.73
9129;BME280;4599;50.906;6.786;2023-07-20T00:48:50;18863.38;;;-142.83;63.94
9129;BME280;4599;50.906;6.786;2023-07-20T00:52:54;18885.88;;;-142.83;63.92
9129;BME280;4599;50.906;6.786;2023-07-20T00:56:56;18879.75;;;-142.83;64.81
9129;BME280;4599;50.906;6.786;2023-07-20T01:00:59;18904.31;;;-142.83;64.44
9129;BME280;4599;50.906;6.786;2023-07-20T01:05:00;18875.66;;;-142.83;65.21
9129;BME280;4599;50.906;6.786;2023-07-20T01:09:11;18887.94;;;-142.83;65.34
9129;BME280;4599;50.906;6.786;2023-07-20T01:13:15;18847.00;;;-142.83;65.21
9129;BME280;4599;50.906;6.786;2023-07-20T01:17:17;18879.75;;;-142.83;65.21
9129;BME280;4599;50.906;6.786;2023-07-20T01:21:25;18793.81;;;-142.83;66.58
9129;BME280;4599;50.906;6.786;2023-07-20T01:25:45;18824.50;;;-142.83;66.98
9129;BME280;4599;50.906;6.786;2023-07-20T01:30:18;18806.09;;;-142.83;67.01
9129;BME280;4599;50.906;6.786;2023-07-20T01:34:28;18797.91;;;-142.83;67.61
9129;BME280;4599;50.906;6.786;2023-07-20T01:38:31;18767.19;;;-142.83;67.97
9129;BME280;4599;50.906;6.786;2023-07-20T01:42:32;18783.56;;;-142.83;68.12
9129;BME280;4599;50.906;6.786;2023-07-20T01:46:34;18754.94;;;-142.83;68.55
9129;BME280;4599;50.906;6.786;2023-07-20T01:50:37;18761.06;;;-142.83;68.98
9129;BME280;4599;50.906;6.786;2023-07-20T01:54:39;18740.59;;;-142.83;69.26
9129;BME280;4599;50.906;6.786;2023-07-20T01:58:40;18771.28;;;-142.83;69.76
9129;BME280;4599;50.906;6.786;2023-07-20T02:02:42;18785.63;;;-142.83;69.34
9129;BME280;4599;50.906;6.786;2023-07-20T02:06:45;18740.59;;;-142.83;69.66
9129;BME280;4599;50.906;6.786;2023-07-20T02:10:47;18734.47;;;-142.83;70.08
9129;BME280;4599;50.906;6.786;2023-07-20T02:14:48;18750.84;;;-142.83;69.76
9129;BME280;4599;50.906;6.786;2023-07-20T02:18:50;18783.56;;;-142.83;70.54
9129;BME280;4599;50.906;6.786;2023-07-20T02:22:53;18695.59;;;-142.83;70.88
9129;BME280;4599;50.906;6.786;2023-07-20T02:26:54;18728.31;;;-142.83;71.03
9129;BME280;4599;50.906;6.786;2023-07-20T02:30:56;18765.16;;;-142.83;70.80
9129;BME280;4599;50.906;6.786;2023-07-20T02:34:57;18722.19;;;-142.83;70.58
9129;BME280;4599;50.906;6.786;2023-07-20T02:39:01;18767.19;;;-142.83;71.43
9129;BME280;4599;50.906;6.786;2023-07-20T02:43:03;18775.38;;;-142.83;70.67
9129;BME280;4599;50.906;6.786;2023-07-20T02:47:05;18730.38;;;-142.83;70.81
9129;BME280;4599;50.906;6.786;2023-07-20T02:51:07;18791.75;;;-142.83;70.31
9129;BME280;4599;50.906;6.786;2023-07-20T02:55:10;18769.25;;;-142.83;69.83
9129;BME280;4599;50.906;6.786;2023-07-20T02:59:12;18734.47;;;-142.83;70.45
9129;BME280;4599;50.906;6.786;2023-07-20T03:03:14;18730.38;;;-142.83;70.72
9129;BME280;4599;50.906;6.786;2023-07-20T03:07:15;18716.06;;;-142.83;70.28
9129;BME280;4599;50.906;6.786;2023-07-20T03:11:21;18738.56;;;-142.83;70.73
9129;BME280;4599;50.906;6.786;2023-07-20T03:15:23;18767.19;;;-142.83;70.53
9129;BME280;4599;50.906;6.786;2023-07-20T03:19:24;18752.88;;;-142.83;69.85
9129;BME280;4599;50.906;6.786;2023-07-20T03:23:25;18742.66;;;-142.83;70.39
9129;BME280;4599;50.906;6.786;2023-07-20T03:27:28;18752.88;;;-142.83;69.45
9129;BME280;4599;50.906;6.786;2023-07-20T03:31:30;18750.84;;;-142.83;69.73
9129;BME280;4599;50.906;6.786;2023-07-20T03:35:32;18744.69;;;-142.83;69.82
9129;BME280;4599;50.906;6.786;2023-07-20T03:39:34;18771.28;;;-142.83;70.01
9129;BME280;4599;50.906;6.786;2023-07-20T03:43:37;18738.56;;;-142.83;69.85
9129;BME280;4599;50.906;6.786;2023-07-20T03:47:38;18744.69;;;-142.83;70.04
9129;BME280;4599;50.906;6.786;2023-07-20T03:51:40;18736.50;;;-142.83;70.30
9129;BME280;4599;50.906;6.786;2023-07-20T03:55:44;18714.00;;;-142.83;69.62
9129;BME280;4599;50.906;6.786;2023-07-20T03:59:48;18785.63;;;-142.83;69.24
9129;BME280;4599;50.906;6.786;2023-07-20T04:03:50;18779.47;;;-142.83;70.22
9129;BME280;4599;50.906;6.786;2023-07-20T04:07:53;18783.56;;;-142.83;69.42
9129;BME280;4599;50.906;6.786;2023-07-20T04:11:54;18787.66;;;-142.83;69.01
9129;BME280;4599;50.906;6.786;2023-07-20T04:15:57;18804.03;;;-142.83;68.67
9129;BME280;4599;50.906;6.786;2023-07-20T04:19:59;18795.84;;;-142.83;68.74
9129;BME280;4599;50.906;6.786;2023-07-20T04:24:01;18849.06;;;-142.83;67.48
9129;BME280;4599;50.906;6.786;2023-07-20T04:28:03;18851.09;;;-142.83;67.83
9129;BME280;4599;50.906;6.786;2023-07-20T04:32:07;18863.38;;;-142.83;67.43
9129;BME280;4599;50.906;6.786;2023-07-20T04:36:08;18877.69;;;-142.83;66.75
9129;BME280;4599;50.906;6.786;2023-07-20T04:40:11;18816.31;;;-142.83;68.86
9129;BME280;4599;50.906;6.786;2023-07-20T04:44:13;18785.63;;;-142.83;69.12
9129;BME280;4599;50.906;6.786;2023-07-20T04:48:16;18812.22;;;-142.83;68.38
9129;BME280;4599;50.906;6.786;2023-07-20T04:52:18;18834.72;;;-142.83;68.41
9129;BME280;4599;50.906;6.786;2023-07-20T04:56:20;18806.09;;;-142.83;68.66
9129;BME280;4599;50.906;6.786;2023-07-20T05:00:22;18840.88;;;-142.83;68.18
9129;BME280;4599;50.906;6.786;2023-07-20T05:04:26;18847.00;;;-142.83;67.27
9129;BME280;4599;50.906;6.786;2023-07-20T05:08:39;18820.41;;;-142.83;68.01
9129;BME280;4599;50.906;6.786;2023-07-20T05:12:40;18791.75;;;-142.83;68.20
9129;BME280;4599;50.906;6.786;2023-07-20T05:16:42;18857.25;;;-142.83;68.13
9129;BME280;4599;50.906;6.786;2023-07-20T05:20:46;18924.75;;;-142.83;67.15
9129;BME280;4599;50.906;6.786;2023-07-20T05:24:48;18935.00;;;-142.83;66.96
9129;BME280;4599;50.906;6.786;2023-07-20T05:28:49;18902.25;;;-142.83;67.41
9129;BME280;4599;50.906;6.786;2023-07-20T05:32:51;18984.09;;;-142.83;66.93
9129;BME280;4599;50.906;6.786;2023-07-20T05:36:54;19137.56;;;-142.83;64.99
9129;BME280;4599;50.906;6.786;2023-07-20T05:40:59;19399.53;;;-142.83;63.25
9129;BME280;4599;50.906;6.786;2023-07-20T05:45:01;19098.69;;;-142.83;63.75
9129;BME280;4599;50.906;6.786;2023-07-20T05:49:03;19158.03;;;-142.83;64.03
9129;BME280;4599;50.906;6.786;2023-07-20T05:53:06;19164.19;;;-142.83;63.11
9129;BME280;4599;50.906;6.786;2023-07-20T05:57:08;19348.34;;;-142.83;63.96
9129;BME280;4599;50.906;6.786;2023-07-20T06:01:10;19812.94;;;-142.83;61.87
9129;BME280;4599;50.906;6.786;2023-07-20T06:05:11;19550.97;;;-142.83;61.82
9129;BME280;4599;50.906;6.786;2023-07-20T06:09:15;19909.13;;;-142.83;59.14
9129;BME280;4599;50.906;6.786;2023-07-20T06:13:20;19514.13;;;-142.83;58.92
9129;BME280;4599;50.906;6.786;2023-07-20T06:17:22;19176.47;;;-142.83;60.99
9129;BME280;4599;50.906;6.786;2023-07-20T06:21:23;19184.66;;;-142.83;61.17
9129;BME280;4599;50.906;6.786;2023-07-20T06:25:28;19270.59;;;-142.83;61.06
9129;BME280;4599;50.906;6.786;2023-07-20T06:29:29;19115.06;;;-142.83;61.84
9129;BME280;4599;50.906;6.786;2023-07-20T06:33:31;19980.75;;;-142.83;58.40
9129;BME280;4599;50.906;6.786;2023-07-20T06:37:33;20265.28;;;-142.83;55.77
9129;BME280;4599;50.906;6.786;2023-07-20T06:41:36;19325.84;;;-142.83;57.47
9129;BME280;4599;50.906;6.786;2023-07-20T06:45:41;19520.25;;;-142.83;56.23
9129;BME280;4599;50.906;6.786;2023-07-20T06:49:43;19270.59;;;-142.83;57.07
9129;BME280;4599;50.906;6.786;2023-07-20T06:53:44;19278.78;;;-142.83;58.07
9129;BME280;4599;50.906;6.786;2023-07-20T06:57:47;19246.03;;;-142.83;58.33
9129;BME280;4599;50.906;6.786;2023-07-20T07:01:50;20210.00;;;-142.83;57.85
9129;BME280;4599;50.906;6.786;2023-07-20T07:05:55;19430.22;;;-142.83;55.99
9129;BME280;4599;50.906;6.786;2023-07-20T07:09:57;19507.97;;;-142.83;55.46
9129;BME280;4599;50.906;6.786;2023-07-20T07:14:00;19491.63;;;-142.83;54.53
9129;BME280;4599;50.906;6.786;2023-07-20T07:18:05;19454.78;;;-142.83;54.59
9129;BME280;4599;50.906;6.786;2023-07-20T07:22:08;19397.47;;;-142.83;54.98
9129;BME280;4599;50.906;6.786;2023-07-20T07:26:10;19295.16;;;-142.83;55.71
9129;BME280;4599;50.906;6.786;2023-07-20T07:30:13;19282.88;;;-142.83;56.33
9129;BME280;4599;50.906;6.786;2023-07-20T07:34:15;20703.34;;;-142.83;52.04
9129;BME280;4599;50.906;6.786;2023-07-20T07:38:18;19974.63;;;-142.83;50.10
9129;BME280;4599;50.906;6.786;2023-07-20T07:42:25;19962.34;;;-142.83;52.78
9129;BME280;4599;50.906;6.786;2023-07-20T07:46:28;19442.50;;;-142.83;53.71
9129;BME280;4599;50.906;6.786;2023-07-20T07:50:30;20220.25;;;-142.83;49.95
9129;BME280;4599;50.906;6.786;2023-07-20T07:54:32;20903.97;;;-142.83;46.16
9129;BME280;4599;50.906;6.786;2023-07-20T07:58:34;21061.63;;;-142.83;44.61
9129;BME280;4599;50.906;6.786;2023-07-20T08:02:37;21161.94;;;-142.83;44.03
9129;BME280;4599;50.906;6.786;2023-07-20T08:06:39;21250.00;;;-142.83;43.18
9129;BME280;4599;50.906;6.786;2023-07-20T08:10:41;21348.28;;;-142.83;43.20
9129;BME280;4599;50.906;6.786;2023-07-20T08:14:42;20320.56;;;-142.83;41.10
9129;BME280;4599;50.906;6.786;2023-07-20T08:18:46;21405.59;;;-142.83;40.61
9129;BME280;4599;50.906;6.786;2023-07-20T08:22:48;19870.25;;;-142.83;46.09
9129;BME280;4599;50.906;6.786;2023-07-20T08:26:50;21035.00;;;-142.83;45.28
9129;BME280;4599;50.906;6.786;2023-07-20T08:30:54;21532.53;;;-142.83;39.72
9129;BME280;4599;50.906;6.786;2023-07-20T08:34:58;21665.66;;;-142.83;40.56
9129;BME280;4599;50.906;6.786;2023-07-20T08:38:59;21481.34;;;-142.83;38.31
9129;BME280;4599;50.906;6.786;2023-07-20T08:43:01;20678.78;;;-142.83;39.38
9129;BME280;4599;50.906;6.786;2023-07-20T08:47:04;21510.03;;;-142.83;40.04
9129;BME280;4599;50.906;6.786;2023-07-20T08:51:10;20508.88;;;-142.83;39.96
9129;BME280;4599;50.906;6.786;2023-07-20T08:55:12;20076.97;;;-142.83;43.13
9129;BME280;4599;50.906;6.786;2023-07-20T08:59:16;20228.44;;;-142.83;41.82
9129;BME280;4599;50.906;6.786;2023-07-20T09:03:18;20179.31;;;-142.83;42.37
9129;BME280;4599;50.906;6.786;2023-07-20T09:07:22;21659.50;;;-142.83;39.77
9129;BME280;4599;50.906;6.786;2023-07-20T09:11:24;21854.03;;;-142.83;37.81
9129;BME280;4599;50.906;6.786;2023-07-20T09:15:29;21696.34;;;-142.83;38.46
9129;BME280;4599;50.906;6.786;2023-07-20T09:19:30;20641.94;;;-142.83;38.60
9129;BME280;4599;50.906;6.786;2023-07-20T09:23:35;21964.63;;;-142.83;36.60
9129;BME280;4599;50.906;6.786;2023-07-20T09:27:38;21976.91;;;-142.83;35.72
9129;BME280;4599;50.906;6.786;2023-07-20T09:31:40;21530.50;;;-142.83;35.88
9129;BME280;4599;50.906;6.786;2023-07-20T09:35:43;21620.59;;;-142.83;37.43
9129;BME280;4599;50.906;6.786;2023-07-20T09:39:57;20633.75;;;-142.83;36.07
9129;BME280;4599;50.906;6.786;2023-07-20T09:44:04;20377.88;;;-142.83;36.88
9129;BME280;4599;50.906;6.786;2023-07-20T09:48:26;20128.13;;;-142.83;38.93
9129;BME280;4599;50.906;6.786;2023-07-20T09:52:31;21313.47;;;-142.83;37.04
9129;BME280;4599;50.906;6.786;2023-07-20T09:56:37;21995.34;;;-142.83;34.11
9129;BME280;4599;50.906;6.786;2023-07-20T10:00:40;22021.97;;;-142.83;33.97
9129;BME280;4599;50.906;6.786;2023-07-20T10:04:46;20846.66;;;-142.83;34.96
9129;BME280;4599;50.906;6.786;2023-07-20T10:08:49;20785.25;;;-142.83;35.66
9129;BME280;4599;50.906;6.786;2023-07-20T10:12:57;21628.78;;;-142.83;35.43
9129;BME280;4599;50.906;6.786;2023-07-20T10:17:02;20502.72;;;-142.83;36.97
9129;BME280;4599;50.906;6.786;2023-07-20T10:21:06;20815.94;;;-142.83;34.89
9129;BME280;4599;50.906;6.786;2023-07-20T10:25:11;21133.28;;;-142.83;34.86
9129;BME280;4599;50.906;6.786;2023-07-20T10:29:15;21317.56;;;-142.83;34.16
9129;BME280;4599;50.906;6.786;2023-07-20T10:33:17;20711.53;;;-142.83;34.55
9129;BME280;4599;50.906;6.786;2023-07-20T10:37:48;20226.38;;;-142.83;36.51
9129;BME280;4599;50.906;6.786;2023-07-20T10:41:59;20199.78;;;-142.83;38.05
9129;BME280;4599;50.906;6.786;2023-07-20T10:46:05;20154.75;;;-142.83;38.26
9129;BME280;4599;50.906;6.786;2023-07-20T10:50:08;20318.50;;;-142.83;37.94
9129;BME280;4599;50.906;6.786;2023-07-20T10:54:34;20314.41;;;-142.83;36.95
9129;BME280;4599;50.906;6.786;2023-07-20T10:58:36;20230.47;;;-142.83;37.62
9129;BME280;4599;50.906;6.786;2023-07-20T11:02:47;20885.56;;;-142.83;37.25
9129;BME280;4599;50.906;6.786;2023-07-20T11:06:55;20627.59;;;-142.83;36.58
9129;BME280;4599;50.906;6.786;2023-07-20T11:11:21;20541.63;;;-142.83;36.31
9129;BME280;4599;50.906;6.786;2023-07-20T11:15:23;20488.41;;;-142.83;35.54
9129;BME280;4599;50.906;6.786;2023-07-20T11:19:28;20408.56;;;-142.83;36.90
9129;BME280;4599;50.906;6.786;2023-07-20T11:23:33;20508.88;;;-142.83;36.09
9129;BME280;4599;50.906;6.786;2023-07-20T11:27:44;20568.25;;;-142.83;34.07
9129;BME280;4599;50.906;6.786;2023-07-20T11:31:47;20451.56;;;-142.83;35.10
9129;BME280;4599;50.906;6.786;2023-07-20T11:35:51;20388.09;;;-142.83;34.33
9129;BME280;4599;50.906;6.786;2023-07-20T11:39:55;20306.22;;;-142.83;35.18
9129;BME280;4599;50.906;6.786;2023-07-20T11:43:57;20764.78;;;-142.83;33.43
9129;BME280;4599;50.906;6.786;2023-07-20T11:47:59;21188.56;;;-142.83;33.82
9129;BME280;4599;50.906;6.786;2023-07-20T11:52:04;21931.84;;;-142.83;31.33
9129;BME280;4599;50.906;6.786;2023-07-20T11:56:07;22017.88;;;-142.83;30.01
9129;BME280;4599;50.906;6.786;2023-07-20T12:00:12;20867.13;;;-142.83;30.96
9129;BME280;4599;50.906;6.786;2023-07-20T12:04:16;20361.50;;;-142.83;33.91
9129;BME280;4599;50.906;6.786;2023-07-20T12:08:25;20408.56;;;-142.83;34.46
9129;BME280;4599;50.906;6.786;2023-07-20T12:12:31;20175.22;;;-142.83;35.65
9129;BME280;4599;50.906;6.786;2023-07-20T12:16:33;20027.84;;;-142.83;36.54
9129;BME280;4599;50.906;6.786;2023-07-20T12:20:37;19997.13;;;-142.83;37.10
9129;BME280;4599;50.906;6.786;2023-07-20T12:25:07;19960.28;;;-142.83;37.40
9129;BME280;4599;50.906;6.786;2023-07-20T12:29:20;19933.69;;;-142.83;37.14
9129;BME280;4599;50.906;6.786;2023-07-20T12:33:22;19970.53;;;-142.83;38.28
9129;BME280;4599;50.906;6.786;2023-07-20T12:37:24;19995.09;;;-142.83;37.39
9129;BME280;4599;50.906;6.786;2023-07-20T12:41:29;19995.09;;;-142.83;36.66
9129;BME280;4599;50.906;6.786;2023-07-20T12:45:30;19976.66;;;-142.83;37.41
9129;BME280;4599;50.906;6.786;2023-07-20T12:49:32;19927.56;;;-142.83;37.53
9129;BME280;4599;50.906;6.786;2023-07-20T12:53:34;19993.03;;;-142.83;37.05
9129;BME280;4599;50.906;6.786;2023-07-20T12:57:38;19991.00;;;-142.83;37.41
9129;BME280;4599;50.906;6.786;2023-07-20T13:01:39;20093.34;;;-142.83;36.41
9129;BME280;4599;50.906;6.786;2023-07-20T13:05:41;20093.34;;;-142.83;37.30
9129;BME280;4599;50.906;6.786;2023-07-20T13:09:46;20877.38;;;-142.83;36.09
9129;BME280;4599;50.906;6.786;2023-07-20T13:13:49;20441.31;;;-142.83;34.72
9129;BME280;4599;50.906;6.786;2023-07-20T13:17:52;20146.56;;;-142.83;36.78
9129;BME280;4599;50.906;6.786;2023-07-20T13:21:54;20031.94;;;-142.83;36.92
9129;BME280;4599;50.906;6.786;2023-07-20T13:25:55;19997.13;;;-142.83;36.62
9129;BME280;4599;50.906;6.786;2023-07-20T13:30:02;19888.66;;;-142.83;37.32
9129;BME280;4599;50.906;6.786;2023-07-20T13:34:05;19993.03;;;-142.83;36.68
9129;BME280;4599;50.906;6.786;2023-07-20T13:38:10;20105.63;;;-142.83;35.77
9129;BME280;4599;50.906;6.786;2023-07-20T13:42:13;20625.56;;;-142.83;35.07
9129;BME280;4599;50.906;6.786;2023-07-20T13:46:20;21116.91;;;-142.83;32.80
9129;BME280;4599;50.906;6.786;2023-07-20T13:50:43;21118.94;;;-142.83;32.67
9129;BME280;4599;50.906;6.786;2023-07-20T13:55:00;21198.81;;;-142.83;32.21
9129;BME280;4599;50.906;6.786;2023-07-20T13:59:06;20783.19;;;-142.83;31.09
9129;BME280;4599;50.906;6.786;2023-07-20T14:03:09;20492.50;;;-142.83;30.97
9129;BME280;4599;50.906;6.786;2023-07-20T14:07:30;20214.09;;;-142.83;33.03
9129;BME280;4599;50.906;6.786;2023-07-20T14:11:34;20295.97;;;-142.83;34.41
9129;BME280;4599;50.906;6.786;2023-07-20T14:15:39;20727.91;;;-142.83;32.39
9129;BME280;4599;50.906;6.786;2023-07-20T14:19:42;20691.06;;;-142.83;32.00
9129;BME280;4599;50.906;6.786;2023-07-20T14:23:45;20899.88;;;-142.83;29.85
9129;BME280;4599;50.906;6.786;2023-07-20T14:27:47;20721.78;;;-142.83;31.34
9129;BME280;4599;50.906;6.786;2023-07-20T14:31:48;20678.78;;;-142.83;31.10
9129;BME280;4599;50.906;6.786;2023-07-20T14:35:56;20695.16;;;-142.83;31.30
9129;BME280;4599;50.906;6.786;2023-07-20T14:39:57;20725.88;;;-142.83;31.26
9129;BME280;4599;50.906;6.786;2023-07-20T14:44:01;20523.22;;;-142.83;30.42
9129;BME280;4599;50.906;6.786;2023-07-20T14:48:02;20605.09;;;-142.83;30.78
9129;BME280;4599;50.906;6.786;2023-07-20T14:52:06;20392.19;;;-142.83;30.77
9129;BME280;4599;50.906;6.786;2023-07-20T14:56:11;20326.69;;;-142.83;31.97
9129;BME280;4599;50.906;6.786;2023-07-20T15:00:14;20306.22;;;-142.83;31.58
9129;BME280;4599;50.906;6.786;2023-07-20T15:04:16;20326.69;;;-142.83;31.88
9129;BME280;4599;50.906;6.786;2023-07-20T15:08:20;20422.91;;;-142.83;31.48
9129;BME280;4599;50.906;6.786;2023-07-20T15:12:22;20384.00;;;-142.83;31.41
9129;BME280;4599;50.906;6.786;2023-07-20T15:16:26;20478.16;;;-142.83;32.00
9129;BME280;4599;50.906;6.786;2023-07-20T15:20:28;20539.59;;;-142.83;33.42
9129;BME280;4599;50.906;6.786;2023-07-20T15:24:31;20445.41;;;-142.83;33.38
9129;BME280;4599;50.906;6.786;2023-07-20T15:28:33;20347.16;;;-142.83;34.47
9129;BME280;4599;50.906;6.786;2023-07-20T15:32:36;20214.09;;;-142.83;34.12
9129;BME280;4599;50.906;6.786;2023-07-20T15:36:42;20081.06;;;-142.83;35.41
9129;BME280;4599;50.906;6.786;2023-07-20T15:40:46;20158.84;;;-142.83;33.73
9129;BME280;4599;50.906;6.786;2023-07-20T15:44:49;20207.97;;;-142.83;33.45
9129;BME280;4599;50.906;6.786;2023-07-20T15:48:50;20181.34;;;-142.83;32.97
9129;BME280;4599;50.906;6.786;2023-07-20T15:52:53;20179.31;;;-142.83;32.98
9129;BME280;4599;50.906;6.786;2023-07-20T15:56:56;20089.25;;;-142.83;34.26
9129;BME280;4599;50.906;6.786;2023-07-20T16:00:58;20068.78;;;-142.83;33.88
9129;BME280;4599;50.906;6.786;2023-07-20T16:05:00;20081.06;;;-142.83;34.04
9129;BME280;4599;50.906;6.786;2023-07-20T16:09:15;20027.84;;;-142.83;33.96
9129;BME280;4599;50.906;6.786;2023-07-20T16:13:18;20119.94;;;-142.83;34.75
9129;BME280;4599;50.906;6.786;2023-07-20T16:17:21;20040.13;;;-142.83;35.31
9129;BME280;4599;50.906;6.786;2023-07-20T16:21:23;20091.28;;;-142.83;34.60
9129;BME280;4599;50.906;6.786;2023-07-20T16:25:24;20064.69;;;-142.83;35.49
9129;BME280;4599;50.906;6.786;2023-07-20T16:29:28;20052.41;;;-142.83;34.57
9129;BME280;4599;50.906;6.786;2023-07-20T16:33:29;20079.00;;;-142.83;35.33
9129;BME280;4599;50.906;6.786;2023-07-20T16:37:32;20052.41;;;-142.83;34.75
9129;BME280;4599;50.906;6.786;2023-07-20T16:41:36;20056.50;;;-142.83;35.09
9129;BME280;4599;50.906;6.786;2023-07-20T16:45:43;19999.19;;;-142.83;36.29
9129;BME280;4599;50.906;6.786;2023-07-20T16:49:45;19974.63;;;-142.83;35.81
9129;BME280;4599;50.906;6.786;2023-07-20T16:53:48;19903.00;;;-142.83;37.04
9129;BME280;4599;50.906;6.786;2023-07-20T16:57:49;19909.13;;;-142.83;36.14
9129;BME280;4599;50.906;6.786;2023-07-20T17:01:52;19950.06;;;-142.83;35.84
9129;BME280;4599;50.906;6.786;2023-07-20T17:05:54;19933.69;;;-142.83;36.73
9129;BME280;4599;50.906;6.786;2023-07-20T17:09:56;19864.09;;;-142.83;36.98
9129;BME280;4599;50.906;6.786;2023-07-20T17:13:58;19819.06;;;-142.83;37.63
9129;BME280;4599;50.906;6.786;2023-07-20T17:18:01;19831.34;;;-142.83;36.31
9129;BME280;4599;50.906;6.786;2023-07-20T17:22:02;19761.75;;;-142.83;36.67
9129;BME280;4599;50.906;6.786;2023-07-20T17:26:04;19794.50;;;-142.83;37.33
9129;BME280;4599;50.906;6.786;2023-07-20T17:30:09;19731.06;;;-142.83;38.93
9129;BME280;4599;50.906;6.786;2023-07-20T17:34:15;19745.38;;;-142.83;38.42
9129;BME280;4599;50.906;6.786;2023-07-20T17:38:17;19751.53;;;-142.83;38.16
9129;BME280;4599;50.906;6.786;2023-07-20T17:42:22;19763.81;;;-142.83;37.76
9129;BME280;4599;50.906;6.786;2023-07-20T17:46:26;19767.91;;;-142.83;37.50
9129;BME280;4599;50.906;6.786;2023-07-20T17:50:32;19741.28;;;-142.83;37.78
9129;BME280;4599;50.906;6.786;2023-07-20T17:54:34;19716.75;;;-142.83;38.28
9129;BME280;4599;50.906;6.786;2023-07-20T17:58:35;19765.84;;;-142.83;37.70
9129;BME280;4599;50.906;6.786;2023-07-20T18:02:37;19743.34;;;-142.83;37.08
9129;BME280;4599;50.906;6.786;2023-07-20T18:06:41;19733.13;;;-142.83;37.42
9129;BME280;4599;50.906;6.786;2023-07-20T18:10:45;19733.13;;;-142.83;37.32
9129;BME280;4599;50.906;6.786;2023-07-20T18:14:47;19673.75;;;-142.83;38.18
9129;BME280;4599;50.906;6.786;2023-07-20T18:18:48;19688.09;;;-142.83;37.52
9129;BME280;4599;50.906;6.786;2023-07-20T18:22:51;19722.88;;;-142.83;37.56
9129;BME280;4599;50.906;6.786;2023-07-20T18:26:53;19692.19;;;-142.83;37.93
9129;BME280;4599;50.906;6.786;2023-07-20T18:30:55;19600.09;;;-142.83;38.85
9129;BME280;4599;50.906;6.786;2023-07-20T18:34:56;19638.97;;;-142.83;39.42
9129;BME280;4599;50.906;6.786;2023-07-20T18:39:00;19596.00;;;-142.83;39.39
9129;BME280;4599;50.906;6.786;2023-07-20T18:43:05;19579.63;;;-142.83;39.93
9129;BME280;4599;50.906;6.786;2023-07-20T18:47:08;19544.81;;;-142.83;40.09
9129;BME280;4599;50.906;6.786;2023-07-20T18:51:09;19524.34;;;-142.83;40.29
9129;BME280;4599;50.906;6.786;2023-07-20T18:55:12;19495.72;;;-142.83;40.43
9129;BME280;4599;50.906;6.786;2023-07-20T18:59:14;19495.72;;;-142.83;40.71
9129;BME280;4599;50.906;6.786;2023-07-20T19:03:16;19444.53;;;-142.83;41.41
9129;BME280;4599;50.906;6.786;2023-07-20T19:07:18;19426.13;;;-142.83;42.12
9129;BME280;4599;50.906;6.786;2023-07-20T19:11:21;19442.50;;;-142.83;42.83
9129;BME280;4599;50.906;6.786;2023-07-20T19:15:26;19405.66;;;-142.83;43.19
9129;BME280;4599;50.906;6.786;2023-07-20T19:19:27;19372.91;;;-142.83;44.15
9129;BME280;4599;50.906;6.786;2023-07-20T19:23:30;19352.44;;;-142.83;44.84
9129;BME280;4599;50.906;6.786;2023-07-20T19:27:34;19325.84;;;-142.83;44.78
9129;BME280;4599;50.906;6.786;2023-07-20T19:31:35;19342.22;;;-142.83;45.78
9129;BME280;4599;50.906;6.786;2023-07-20T19:35:37;19360.63;;;-142.83;45.23
9129;BME280;4599;50.906;6.786;2023-07-20T19:39:39;19393.38;;;-142.83;44.33
9129;BME280;4599;50.906;6.786;2023-07-20T19:43:42;19368.81;;;-142.83;43.63
9129;BME280;4599;50.906;6.786;2023-07-20T19:47:43;19350.41;;;-142.83;44.67
9129;BME280;4599;50.906;6.786;2023-07-20T19:51:45;19372.91;;;-142.83;43.98
9129;BME280;4599;50.906;6.786;2023-07-20T19:55:47;19327.91;;;-142.83;44.53
9129;BME280;4599;50.906;6.786;2023-07-20T19:59:50;19299.25;;;-142.83;45.92
9129;BME280;4599;50.906;6.786;2023-07-20T20:03:52;19307.44;;;-142.83;45.91
9129;BME280;4599;50.906;6.786;2023-07-20T20:07:55;19258.31;;;-142.83;46.49
9129;BME280;4599;50.906;6.786;2023-07-20T20:11:56;19309.47;;;-142.83;46.71
9129;BME280;4599;50.906;6.786;2023-07-20T20:15:59;19303.34;;;-142.83;46.54
9129;BME280;4599;50.906;6.786;2023-07-20T20:20:01;19291.06;;;-142.83;46.47
9129;BME280;4599;50.906;6.786;2023-07-20T20:24:03;19313.56;;;-142.83;46.57
9129;BME280;4599;50.906;6.786;2023-07-20T20:28:05;19270.59;;;-142.83;47.43
9129;BME280;4599;50.906;6.786;2023-07-20T20:32:08;19264.44;;;-142.83;47.23
9129;BME280;4599;50.906;6.786;2023-07-20T20:36:10;19272.63;;;-142.83;47.70
9129;BME280;4599;50.906;6.786;2023-07-20T20:40:12;19153.94;;;-142.83;50.90
9129;BME280;4599;50.906;6.786;2023-07-20T20:44:14;18975.91;;;-142.83;60.77
9129;BME280;4599;50.906;6.786;2023-07-20T20:48:16;18922.72;;;-142.83;66.06
9129;BME280;4599;50.906;6.786;2023-07-20T20:52:18;18912.47;;;-142.83;66.62
9129;BME280;4599;50.906;6.786;2023-07-20T20:56:19;18928.84;;;-142.83;68.07
9129;BME280;4599;50.906;6.786;2023-07-20T21:00:21;18932.94;;;-142.83;67.74
9129;BME280;4599;50.906;6.786;2023-07-20T21:04:25;18898.16;;;-142.83;68.28
9129;BME280;4599;50.906;6.786;2023-07-20T21:08:26;18916.56;;;-142.83;68.19
9129;BME280;4599;50.906;6.786;2023-07-20T21:12:28;18910.44;;;-142.83;70.12
9129;BME280;4599;50.906;6.786;2023-07-20T21:16:30;18908.38;;;-142.83;71.81
9129;BME280;4599;50.906;6.786;2023-07-20T21:20:32;18914.53;;;-142.83;69.31
9129;BME280;4599;50.906;6.786;2023-07-20T21:24:34;18939.09;;;-142.83;70.18
9129;BME280;4599;50.906;6.786;2023-07-20T21:28:36;18900.22;;;-142.83;70.29